createdAt,value
2023-06-12T00:02:03.131Z,22.60
2023-06-12T00:07:12.672Z,22.60
2023-06-12T00:09:41.967Z,22.50
2023-06-12T00:12:11.692Z,22.50
2023-06-12T00:14:40.570Z,22.40
2023-06-12T00:17:09.680Z,22.30
2023-06-12T00:19:44.487Z,22.20
2023-06-12T00:22:15.957Z,22.10
2023-06-12T00:27:24.603Z,22.20
2023-06-12T00:29:53.475Z,22.20
2023-06-12T00:32:21.874Z,22.10
2023-06-12T00:34:50.336Z,22.10
2023-06-12T00:37:19.333Z,22.10
2023-06-12T00:39:47.599Z,21.90
2023-06-12T00:42:16.592Z,22.00
2023-06-12T00:55:17.852Z,21.70
2023-06-12T00:58:24.005Z,21.60
2023-06-12T01:04:30.767Z,21.40
2023-06-12T01:07:10.115Z,21.30
2023-06-12T01:09:45.856Z,21.40
2023-06-12T01:14:56.969Z,21.40
2023-06-12T01:17:28.253Z,21.30
2023-06-12T01:19:58.946Z,21.30
2023-06-12T01:22:32.229Z,21.40
2023-06-12T01:25:21.021Z,21.40
2023-06-12T01:28:18.351Z,21.30
2023-06-12T01:36:34.580Z,21.30
2023-06-12T01:39:05.617Z,21.40
2023-06-12T01:41:36.867Z,21.30
2023-06-12T01:44:11.606Z,21.40
2023-06-12T01:46:40.431Z,21.50
2023-06-12T01:49:08.886Z,21.60
2023-06-12T01:51:40.308Z,21.60
2023-06-12T01:54:10.141Z,21.80
2023-06-12T01:56:40.649Z,21.70
2023-06-12T02:01:59.478Z,21.80
2023-06-12T02:04:29.263Z,21.60
2023-06-12T02:07:00.377Z,21.40
2023-06-12T02:09:29.898Z,21.20
2023-06-12T02:11:58.567Z,21.10
2023-06-12T02:14:27.049Z,21.20
2023-06-12T02:16:57.080Z,21.20
2023-06-12T02:24:29.583Z,21.30
2023-06-12T02:26:58.275Z,21.30
2023-06-12T02:29:27.063Z,21.30
2023-06-12T02:31:56.905Z,21.40
2023-06-12T02:34:25.454Z,21.40
2023-06-12T02:36:54.560Z,21.30
2023-06-12T02:39:23.446Z,21.20
2023-06-12T02:44:30.843Z,21.20
2023-06-12T02:46:59.845Z,21.20
2023-06-12T02:49:31.256Z,21.10
2023-06-12T02:52:01.322Z,20.90
2023-06-12T02:54:30.716Z,20.80
2023-06-12T02:56:59.603Z,20.80
2023-06-12T02:59:29.558Z,20.80
2023-06-12T03:04:37.450Z,20.60
2023-06-12T03:07:07.162Z,20.60
2023-06-12T03:09:36.454Z,20.50
2023-06-12T03:12:05.647Z,20.40
2023-06-12T03:14:34.649Z,20.30
2023-06-12T03:17:02.815Z,20.50
2023-06-12T03:19:31.302Z,20.60
2023-06-12T03:26:08.308Z,20.60
2023-06-12T03:28:37.196Z,20.60
2023-06-12T03:31:06.659Z,20.50
2023-06-12T03:33:36.096Z,20.50
2023-06-12T03:36:05.295Z,20.50
2023-06-12T03:38:33.369Z,20.50
2023-06-12T03:41:02.067Z,20.40
2023-06-12T03:46:16.752Z,20.50
2023-06-12T03:48:45.838Z,20.30
2023-06-12T03:51:16.756Z,20.40
2023-06-12T03:53:45.236Z,20.40
2023-06-12T03:56:13.315Z,20.40
2023-06-12T03:58:41.695Z,20.30
2023-06-12T04:01:09.871Z,20.30
2023-06-12T04:07:42.267Z,20.30
2023-06-12T04:10:11.359Z,20.40
2023-06-12T04:12:41.193Z,20.30
2023-06-12T04:15:10.583Z,20.30
2023-06-12T04:17:39.322Z,20.30
2023-06-12T04:20:09.402Z,20.20
2023-06-12T04:22:38.302Z,20.30
2023-06-12T04:27:50.194Z,20.30
2023-06-12T04:30:22.253Z,20.40
2023-06-12T04:32:50.495Z,20.40
2023-06-12T04:35:20.036Z,20.30
2023-06-12T04:37:49.262Z,20.30
2023-06-12T04:40:21.410Z,20.30
2023-06-12T04:42:58.115Z,20.30
2023-06-12T04:48:07.489Z,20.50
2023-06-12T04:50:37.750Z,20.50
2023-06-12T04:53:07.496Z,20.50
2023-06-12T04:55:36.958Z,20.50
2023-06-12T04:58:05.873Z,20.50
2023-06-12T05:00:34.442Z,20.50
2023-06-12T05:03:04.235Z,20.60
2023-06-12T05:09:33.993Z,20.70
2023-06-12T05:12:07.591Z,20.90
2023-06-12T05:14:35.922Z,21.00
2023-06-12T05:17:05.260Z,20.90
2023-06-12T05:19:33.870Z,21.10
2023-06-12T05:22:02.739Z,21.10
2023-06-12T05:24:31.344Z,21.10
2023-06-12T05:32:07.752Z,21.10
2023-06-12T05:34:37.436Z,21.10
2023-06-12T05:37:05.924Z,21.10
2023-06-12T05:39:34.310Z,21.20
2023-06-12T05:42:03.700Z,21.30
2023-06-12T05:44:31.986Z,21.30
2023-06-12T05:47:00.571Z,21.20
2023-06-12T05:49:29.186Z,21.30
2023-06-12T05:51:58.087Z,21.30
2023-06-12T05:59:38.946Z,21.60
2023-06-12T06:02:07.956Z,21.50
2023-06-12T06:04:37.158Z,21.40
2023-06-12T06:07:17.029Z,21.50
2023-06-12T06:09:47.007Z,21.60
2023-06-12T06:12:16.296Z,21.60
2023-06-12T06:20:20.556Z,21.80
2023-06-12T06:22:50.572Z,21.80
2023-06-12T06:25:21.821Z,21.70
2023-06-12T06:27:50.189Z,21.70
2023-06-12T06:30:18.685Z,21.80
2023-06-12T06:32:48.126Z,21.90
2023-06-12T06:35:17.697Z,22.00
2023-06-12T06:37:46.069Z,21.90
2023-06-12T06:40:16.013Z,21.80
2023-06-12T06:47:37.953Z,22.00
2023-06-12T06:50:07.754Z,22.20
2023-06-12T06:52:36.334Z,22.20
2023-06-12T06:55:05.755Z,22.20
2023-06-12T06:57:35.447Z,22.30
2023-06-12T07:00:06.640Z,22.50
2023-06-12T07:02:37.953Z,22.60
2023-06-12T07:08:01.068Z,22.70
2023-06-12T07:10:32.569Z,22.80
2023-06-12T07:13:02.484Z,22.90
2023-06-12T07:15:32.005Z,23.00
2023-06-12T07:18:01.124Z,23.00
2023-06-12T07:20:29.776Z,23.00
2023-06-12T07:25:47.742Z,23.00
2023-06-12T07:28:18.576Z,23.30
2023-06-12T07:30:48.284Z,23.30
2023-06-12T07:33:17.272Z,23.30
2023-06-12T07:35:45.761Z,23.40
2023-06-12T07:38:15.383Z,23.60
2023-06-12T07:40:44.253Z,23.80
2023-06-12T07:45:53.300Z,23.90
2023-06-12T07:48:22.276Z,24.20
2023-06-12T07:50:52.102Z,24.40
2023-06-12T07:53:32.450Z,24.70
2023-06-12T07:56:09.493Z,24.90
2023-06-12T07:58:42.049Z,25.10
2023-06-12T08:01:11.314Z,25.30
2023-06-12T08:16:21.939Z,26.80
2023-06-12T08:18:50.560Z,27.10
2023-06-12T08:21:18.900Z,27.20
2023-06-12T08:23:47.657Z,27.40
2023-06-12T08:26:16.930Z,27.70
2023-06-12T08:28:50.829Z,28.10
2023-06-12T08:31:20.460Z,28.40
2023-06-12T08:33:49.542Z,28.50
2023-06-12T08:36:18.125Z,28.60
2023-06-12T08:43:53.282Z,29.10
2023-06-12T08:46:22.215Z,29.50
2023-06-12T08:48:51.059Z,29.80
2023-06-12T08:51:19.753Z,30.00
2023-06-12T08:53:49.769Z,30.10
2023-06-12T08:56:18.873Z,30.10
2023-06-12T09:04:49.441Z,30.30
2023-06-12T09:07:19.605Z,30.50
2023-06-12T09:09:48.779Z,30.70
2023-06-12T09:12:17.672Z,30.70
2023-06-12T09:14:49.643Z,31.00
2023-06-12T09:17:18.394Z,30.90
2023-06-12T09:22:25.767Z,31.10
2023-06-12T09:24:57.466Z,31.10
2023-06-12T09:27:25.733Z,31.10
2023-06-12T09:30:00.691Z,31.00
2023-06-12T09:32:31.485Z,31.10
2023-06-12T09:35:02.047Z,31.30
2023-06-12T09:37:32.353Z,31.40
2023-06-12T09:43:26.151Z,31.80
2023-06-12T09:45:54.897Z,32.10
2023-06-12T09:48:23.453Z,32.00
2023-06-12T09:50:52.607Z,32.10
2023-06-12T09:53:23.210Z,32.30
2023-06-12T09:55:53.035Z,32.40
2023-06-12T10:01:22.243Z,32.40
2023-06-12T10:03:54.603Z,32.70
2023-06-12T10:06:27.636Z,32.70
2023-06-12T10:08:59.157Z,32.90
2023-06-12T10:11:28.598Z,33.10
2023-06-12T10:13:59.222Z,33.20
2023-06-12T10:16:29.000Z,33.50
2023-06-12T10:23:35.280Z,33.40
2023-06-12T10:26:05.106Z,33.30
2023-06-12T10:28:34.763Z,33.10
2023-06-12T10:31:14.814Z,33.50
2023-06-12T10:33:59.669Z,33.50
2023-06-12T10:36:38.394Z,33.20
2023-06-12T10:44:35.890Z,34.00
2023-06-12T10:47:05.095Z,34.00
2023-06-12T10:49:53.444Z,33.80
2023-06-12T10:52:23.142Z,34.00
2023-06-12T10:55:15.691Z,34.10
2023-06-12T10:57:50.244Z,33.90
2023-06-12T11:08:46.693Z,34.20
2023-06-12T11:11:16.027Z,34.30
2023-06-12T11:13:45.108Z,34.20
2023-06-12T11:16:15.831Z,34.30
2023-06-12T11:18:44.224Z,34.40
2023-06-12T11:21:13.607Z,34.20
2023-06-12T11:23:42.863Z,34.30
2023-06-12T11:28:52.007Z,34.30
2023-06-12T11:31:20.851Z,34.30
2023-06-12T11:33:49.027Z,34.40
2023-06-12T11:36:17.411Z,34.60
2023-06-12T11:41:17.830Z,34.80
2023-06-12T11:43:46.733Z,34.80
2023-06-12T11:50:20.927Z,34.60
2023-06-12T11:52:53.041Z,34.10
2023-06-12T11:57:55.949Z,34.10
2023-06-12T12:00:27.317Z,34.10
2023-06-12T12:03:02.560Z,34.00
2023-06-12T12:12:59.632Z,34.40
2023-06-12T12:15:29.242Z,34.40
2023-06-12T12:17:57.569Z,34.70
2023-06-12T12:20:28.346Z,34.60
2023-06-12T12:22:59.307Z,34.80
2023-06-12T12:25:29.308Z,34.80
2023-06-12T12:28:01.334Z,34.40
2023-06-12T12:30:30.572Z,34.40
2023-06-12T12:37:01.859Z,34.80
2023-06-12T12:39:30.567Z,34.60
2023-06-12T12:41:59.421Z,34.50
2023-06-12T12:44:27.804Z,34.30
2023-06-12T12:46:56.374Z,33.80
2023-06-12T12:49:24.578Z,34.00
2023-06-12T12:51:53.153Z,33.80
2023-06-12T12:58:27.704Z,33.70
2023-06-12T13:00:56.022Z,33.90
2023-06-12T13:03:24.885Z,33.80
2023-06-12T13:05:53.954Z,33.40
2023-06-12T13:08:23.986Z,33.30
2023-06-12T13:10:52.550Z,33.50
2023-06-12T13:13:21.131Z,33.50
2023-06-12T13:20:02.566Z,33.50
2023-06-12T13:22:30.822Z,33.60
2023-06-12T13:24:59.619Z,33.90
2023-06-12T13:27:28.445Z,34.20
2023-06-12T13:29:56.883Z,34.10
2023-06-12T13:32:24.852Z,33.90
2023-06-12T13:34:53.111Z,33.70
2023-06-12T13:40:14.305Z,33.60
2023-06-12T13:42:44.371Z,33.60
2023-06-12T13:45:14.020Z,33.80
2023-06-12T13:47:42.117Z,33.90
2023-06-12T13:50:13.764Z,33.30
2023-06-12T13:52:43.357Z,32.20
2023-06-12T13:55:15.089Z,32.40
2023-06-12T14:00:22.188Z,32.90
2023-06-12T14:02:52.547Z,33.10
2023-06-12T14:05:20.838Z,33.20
2023-06-12T14:07:49.795Z,33.40
2023-06-12T14:10:20.337Z,33.30
2023-06-12T14:12:51.026Z,33.00
2023-06-12T14:15:20.441Z,32.90
2023-06-12T14:22:51.304Z,32.30
2023-06-12T14:25:20.350Z,32.20
2023-06-12T14:27:49.817Z,32.30
2023-06-12T14:30:19.218Z,32.20
2023-06-12T14:32:47.441Z,32.10
2023-06-12T14:35:15.647Z,31.80
2023-06-12T14:37:44.955Z,31.80
2023-06-12T14:42:53.108Z,31.80
2023-06-12T14:45:23.020Z,31.60
2023-06-12T14:47:53.837Z,31.20
2023-06-12T14:50:23.348Z,31.30
2023-06-12T14:52:51.694Z,31.40
2023-06-12T14:55:20.488Z,31.10
2023-06-12T14:57:52.368Z,31.20
2023-06-12T15:05:23.574Z,30.80
2023-06-12T15:07:51.420Z,30.80
2023-06-12T15:10:19.473Z,30.60
2023-06-12T15:12:59.409Z,30.70
2023-06-12T15:15:32.652Z,30.80
2023-06-12T15:18:00.839Z,30.90
2023-06-12T15:23:20.186Z,30.90
2023-06-12T15:25:48.595Z,30.90
2023-06-12T15:28:16.648Z,30.90
2023-06-12T15:30:44.638Z,30.80
2023-06-12T15:33:14.008Z,30.70
2023-06-12T15:35:42.123Z,30.40
2023-06-12T15:38:40.676Z,30.60
2023-06-12T15:44:02.809Z,30.70
2023-06-12T15:46:34.018Z,30.80
2023-06-12T15:49:02.696Z,30.80
2023-06-12T15:51:33.171Z,30.90
2023-06-12T15:54:01.782Z,30.70
2023-06-12T15:56:29.646Z,30.50
2023-06-12T15:59:01.594Z,30.40
2023-06-12T16:04:15.156Z,30.30
2023-06-12T16:06:47.110Z,30.30
2023-06-12T16:09:16.921Z,30.40
2023-06-12T16:11:45.192Z,30.50
2023-06-12T16:14:16.053Z,30.60
2023-06-12T16:16:45.144Z,30.50
2023-06-12T16:19:14.839Z,30.40
2023-06-12T16:24:33.924Z,30.40
2023-06-12T16:27:07.525Z,30.40
2023-06-12T16:29:50.341Z,30.20
2023-06-12T16:32:21.685Z,30.10
2023-06-12T16:35:03.300Z,30.00
2023-06-12T16:37:32.393Z,29.80
2023-06-12T16:40:16.467Z,29.80
2023-06-12T16:42:48.069Z,29.80
2023-06-12T16:49:24.379Z,29.80
2023-06-12T16:52:09.355Z,29.80
2023-06-12T16:54:43.138Z,29.80
2023-06-12T16:57:12.640Z,29.80
2023-06-12T16:59:42.975Z,29.60
2023-06-12T17:02:13.222Z,29.50
2023-06-12T17:04:47.984Z,29.30
2023-06-12T17:12:25.561Z,29.10
2023-06-12T17:14:54.174Z,29.20
2023-06-12T17:17:22.955Z,28.90
2023-06-12T17:19:52.014Z,29.00
2023-06-12T17:22:20.491Z,28.90
2023-06-12T17:24:48.564Z,28.80
2023-06-12T17:27:16.948Z,28.80
2023-06-12T17:34:37.067Z,28.60
2023-06-12T17:37:07.598Z,28.50
2023-06-12T17:39:37.605Z,28.40
2023-06-12T17:42:07.403Z,28.40
2023-06-12T17:44:41.684Z,28.40
2023-06-12T17:47:15.563Z,28.40
2023-06-12T17:49:45.552Z,28.20
2023-06-12T17:54:51.637Z,28.20
2023-06-12T17:57:20.318Z,28.30
2023-06-12T17:59:48.746Z,28.30
2023-06-12T18:02:16.900Z,28.20
2023-06-12T18:04:46.273Z,28.10
2023-06-12T18:07:14.786Z,28.10
2023-06-12T18:09:44.624Z,28.00
2023-06-12T18:15:31.325Z,27.90
2023-06-12T18:17:59.377Z,27.80
2023-06-12T18:20:29.099Z,27.80
2023-06-12T18:22:57.555Z,27.70
2023-06-12T18:25:25.827Z,27.70
2023-06-12T18:27:54.017Z,27.70
2023-06-12T18:30:25.064Z,27.60
2023-06-12T18:35:33.893Z,27.60
2023-06-12T18:38:03.608Z,27.50
2023-06-12T18:40:32.211Z,27.40
2023-06-12T18:43:00.598Z,27.30
2023-06-12T18:45:29.559Z,27.20
2023-06-12T18:47:58.169Z,27.20
2023-06-12T18:50:26.323Z,27.10
2023-06-12T18:57:01.069Z,27.10
2023-06-12T18:59:30.824Z,26.90
2023-06-12T19:01:59.778Z,26.70
2023-06-12T19:04:29.334Z,26.50
2023-06-12T19:06:58.078Z,26.60
2023-06-12T19:09:26.340Z,26.50
2023-06-12T19:11:54.452Z,26.40
2023-06-12T19:22:52.147Z,26.40
2023-06-12T19:25:20.342Z,26.30
2023-06-12T19:27:51.450Z,26.20
2023-06-12T19:30:19.835Z,26.20
2023-06-12T19:32:48.014Z,26.20
2023-06-12T19:35:17.292Z,26.00
2023-06-12T19:37:46.107Z,26.00
2023-06-12T19:40:15.526Z,25.90
2023-06-12T19:42:44.704Z,25.80
2023-06-12T19:49:39.429Z,25.90
2023-06-12T19:52:08.823Z,25.60
2023-06-12T19:54:37.532Z,25.70
2023-06-12T19:57:06.815Z,25.60
2023-06-12T19:59:37.871Z,25.60
2023-06-12T20:02:07.644Z,25.40
2023-06-12T20:07:18.548Z,25.40
2023-06-12T20:09:46.728Z,25.40
2023-06-12T20:12:15.215Z,25.20
2023-06-12T20:14:43.391Z,25.10
2023-06-12T20:17:12.698Z,25.00
2023-06-12T20:19:40.864Z,25.00
2023-06-12T20:22:10.676Z,24.90
2023-06-12T20:28:46.637Z,24.70
2023-06-12T20:31:15.763Z,24.60
2023-06-12T20:33:44.139Z,24.70
2023-06-12T20:36:12.698Z,24.60
2023-06-12T20:38:40.771Z,24.40
2023-06-12T20:41:10.085Z,24.40
2023-06-12T20:43:39.180Z,24.50
2023-06-12T20:48:47.503Z,24.30
2023-06-12T20:51:17.214Z,24.20
2023-06-12T20:53:45.382Z,24.10
2023-06-12T20:56:13.982Z,24.10
2023-06-12T20:58:42.560Z,24.00
2023-06-12T21:01:10.637Z,24.10
2023-06-12T21:03:38.836Z,24.10
2023-06-12T21:10:30.878Z,23.80
2023-06-12T21:12:59.758Z,23.80
2023-06-12T21:15:27.515Z,23.60
2023-06-12T21:17:56.303Z,23.60
2023-06-12T21:20:24.684Z,23.40
2023-06-12T21:22:53.773Z,23.30
2023-06-12T21:25:22.776Z,23.30
2023-06-12T21:27:52.555Z,23.30
2023-06-12T21:30:23.227Z,23.30
2023-06-12T21:37:21.501Z,23.30
2023-06-12T21:39:51.534Z,23.00
2023-06-12T21:42:20.256Z,23.00
2023-06-12T21:44:48.714Z,22.90
2023-06-12T21:47:17.694Z,22.80
2023-06-12T21:49:46.501Z,22.90
2023-06-12T21:55:11.300Z,23.00
2023-06-12T21:57:40.094Z,23.00
2023-06-12T22:00:11.023Z,23.00
2023-06-12T22:02:41.275Z,23.00
2023-06-12T22:05:12.216Z,22.90
2023-06-12T22:07:40.468Z,22.90
2023-06-12T22:10:11.928Z,22.90
2023-06-12T22:17:22.859Z,22.80
2023-06-12T22:19:51.816Z,22.60
2023-06-12T22:22:20.504Z,22.60
2023-06-12T22:24:48.474Z,22.60
2023-06-12T22:27:16.742Z,22.60
2023-06-12T22:29:45.980Z,22.60
2023-06-12T22:32:15.020Z,22.50
2023-06-12T22:34:44.765Z,22.50
2023-06-12T22:37:13.235Z,22.40
2023-06-12T22:44:47.477Z,22.20
2023-06-12T22:47:16.711Z,22.20
2023-06-12T22:49:45.376Z,22.20
2023-06-12T22:52:13.846Z,22.20
2023-06-12T22:54:44.517Z,22.10
2023-06-12T22:57:13.162Z,22.10
2023-06-12T22:59:41.554Z,22.20
2023-06-12T23:06:32.723Z,22.10
2023-06-12T23:09:01.584Z,22.00
2023-06-12T23:11:30.495Z,22.00
2023-06-12T23:14:02.252Z,21.90
2023-06-12T23:16:30.339Z,21.90
2023-06-12T23:18:58.879Z,21.90
2023-06-12T23:21:27.588Z,21.80
2023-06-12T23:23:58.278Z,21.80
2023-06-12T23:29:45.847Z,21.70
2023-06-12T23:32:14.117Z,21.70
2023-06-12T23:34:41.992Z,21.60
2023-06-12T23:37:10.981Z,21.50
2023-06-12T23:39:39.575Z,21.40
2023-06-12T23:42:09.181Z,21.40
2023-06-12T23:44:37.758Z,21.40
2023-06-12T23:49:46.900Z,21.40
2023-06-12T23:52:15.597Z,21.30
2023-06-12T23:54:44.272Z,21.30
2023-06-12T23:57:12.962Z,21.20
2023-06-12T23:59:46.263Z,21.20
